sensor_id;sensor_type;location;lat;lon;timestamp;P1;durP1;ratioP1;P2;durP2;ratioP2
10191;SDS011;17580;50.850;4.504;2023-02-28T00:01:20;6.60;;;4.10;;
10191;SDS011;17580;50.850;4.504;2023-02-28T00:03:47;5.57;;;3.97;;
10191;SDS011;17580;50.850;4.504;2023-02-28T00:06:15;8.27;;;4.17;;
10191;SDS011;17580;50.850;4.504;2023-02-28T00:08:42;3.93;;;3.63;;
10191;SDS011;17580;50.850;4.504;2023-02-28T00:11:10;5.93;;;3.47;;
10191;SDS011;17580;50.850;4.504;2023-02-28T00:13:39;4.27;;;3.67;;
10191;SDS011;17580;50.850;4.504;2023-02-28T00:16:08;4.67;;;3.53;;
10191;SDS011;17580;50.850;4.504;2023-02-28T00:18:38;4.83;;;3.70;;
10191;SDS011;17580;50.850;4.504;2023-02-28T00:21:05;6.93;;;3.93;;
10191;SDS011;17580;50.850;4.504;2023-02-28T00:23:33;5.97;;;3.60;;
10191;SDS011;17580;50.850;4.504;2023-02-28T00:26:00;7.27;;;3.77;;
10191;SDS011;17580;50.850;4.504;2023-02-28T00:28:27;6.53;;;3.70;;
10191;SDS011;17580;50.850;4.504;2023-02-28T00:30:54;5.40;;;4.13;;
10191;SDS011;17580;50.850;4.504;2023-02-28T00:33:22;4.47;;;4.00;;
10191;SDS011;17580;50.850;4.504;2023-02-28T00:35:50;6.17;;;3.77;;
10191;SDS011;17580;50.850;4.504;2023-02-28T00:38:17;5.67;;;3.60;;
10191;SDS011;17580;50.850;4.504;2023-02-28T00:40:44;9.93;;;4.17;;
10191;SDS011;17580;50.850;4.504;2023-02-28T00:43:11;5.60;;;3.90;;
10191;SDS011;17580;50.850;4.504;2023-02-28T00:45:38;4.13;;;3.33;;
10191;SDS011;17580;50.850;4.504;2023-02-28T00:48:05;3.80;;;3.37;;
10191;SDS011;17580;50.850;4.504;2023-02-28T00:50:32;3.93;;;3.20;;
10191;SDS011;17580;50.850;4.504;2023-02-28T00:53:01;3.40;;;3.10;;
10191;SDS011;17580;50.850;4.504;2023-02-28T00:55:28;5.03;;;2.90;;
10191;SDS011;17580;50.850;4.504;2023-02-28T00:57:55;3.53;;;3.23;;
10191;SDS011;17580;50.850;4.504;2023-02-28T01:00:22;5.60;;;3.40;;
10191;SDS011;17580;50.850;4.504;2023-02-28T01:02:49;4.37;;;3.37;;
10191;SDS011;17580;50.850;4.504;2023-02-28T01:05:16;3.63;;;3.33;;
10191;SDS011;17580;50.850;4.504;2023-02-28T01:07:43;3.60;;;3.30;;
10191;SDS011;17580;50.850;4.504;2023-02-28T01:10:11;4.30;;;3.43;;
10191;SDS011;17580;50.850;4.504;2023-02-28T01:12:38;5.83;;;3.13;;
10191;SDS011;17580;50.850;4.504;2023-02-28T01:15:06;4.13;;;3.40;;
10191;SDS011;17580;50.850;4.504;2023-02-28T01:17:36;7.90;;;3.47;;
10191;SDS011;17580;50.850;4.504;2023-02-28T01:20:03;4.77;;;3.63;;
10191;SDS011;17580;50.850;4.504;2023-02-28T01:22:30;3.97;;;3.33;;
10191;SDS011;17580;50.850;4.504;2023-02-28T01:24:57;5.37;;;3.90;;
10191;SDS011;17580;50.850;4.504;2023-02-28T01:27:26;4.13;;;3.73;;
10191;SDS011;17580;50.850;4.504;2023-02-28T01:29:54;3.93;;;3.53;;
10191;SDS011;17580;50.850;4.504;2023-02-28T01:32:21;4.13;;;3.80;;
10191;SDS011;17580;50.850;4.504;2023-02-28T01:34:48;4.80;;;3.80;;
10191;SDS011;17580;50.850;4.504;2023-02-28T01:37:15;4.73;;;3.97;;
10191;SDS011;17580;50.850;4.504;2023-02-28T01:39:42;4.83;;;3.97;;
10191;SDS011;17580;50.850;4.504;2023-02-28T01:42:09;4.73;;;4.27;;
10191;SDS011;17580;50.850;4.504;2023-02-28T01:47:25;8.03;;;4.13;;
10191;SDS011;17580;50.850;4.504;2023-02-28T01:49:55;5.37;;;3.80;;
10191;SDS011;17580;50.850;4.504;2023-02-28T01:52:23;6.87;;;4.03;;
10191;SDS011;17580;50.850;4.504;2023-02-28T01:54:53;7.20;;;4.70;;
10191;SDS011;17580;50.850;4.504;2023-02-28T01:57:23;7.10;;;4.33;;
10191;SDS011;17580;50.850;4.504;2023-02-28T01:59:56;5.10;;;3.97;;
10191;SDS011;17580;50.850;4.504;2023-02-28T02:02:27;3.57;;;3.27;;
10191;SDS011;17580;50.850;4.504;2023-02-28T02:04:56;3.63;;;3.43;;
10191;SDS011;17580;50.850;4.504;2023-02-28T02:07:29;4.17;;;3.77;;
10191;SDS011;17580;50.850;4.504;2023-02-28T02:09:59;3.83;;;3.30;;
10191;SDS011;17580;50.850;4.504;2023-02-28T02:12:31;4.43;;;4.03;;
10191;SDS011;17580;50.850;4.504;2023-02-28T02:15:15;4.60;;;3.80;;
10191;SDS011;17580;50.850;4.504;2023-02-28T02:17:47;4.07;;;3.77;;
10191;SDS011;17580;50.850;4.504;2023-02-28T02:23:46;3.83;;;3.53;;
10191;SDS011;17580;50.850;4.504;2023-02-28T02:26:52;6.80;;;4.50;;
10191;SDS011;17580;50.850;4.504;2023-02-28T02:29:53;5.50;;;3.83;;
10191;SDS011;17580;50.850;4.504;2023-02-28T02:32:47;5.67;;;4.00;;
10191;SDS011;17580;50.850;4.504;2023-02-28T02:35:45;4.77;;;4.30;;
10191;SDS011;17580;50.850;4.504;2023-02-28T02:38:18;4.40;;;3.97;;
10191;SDS011;17580;50.850;4.504;2023-02-28T02:40:54;4.50;;;4.07;;
10191;SDS011;17580;50.850;4.504;2023-02-28T02:43:25;5.97;;;4.40;;
10191;SDS011;17580;50.850;4.504;2023-02-28T02:45:59;5.07;;;4.30;;
10191;SDS011;17580;50.850;4.504;2023-02-28T02:48:30;4.63;;;3.90;;
10191;SDS011;17580;50.850;4.504;2023-02-28T02:51:03;4.53;;;3.90;;
10191;SDS011;17580;50.850;4.504;2023-02-28T02:53:37;5.80;;;4.80;;
10191;SDS011;17580;50.850;4.504;2023-02-28T02:56:09;5.40;;;4.60;;
10191;SDS011;17580;50.850;4.504;2023-02-28T02:58:39;5.60;;;5.00;;
10191;SDS011;17580;50.850;4.504;2023-02-28T03:01:09;6.23;;;4.33;;
10191;SDS011;17580;50.850;4.504;2023-02-28T03:03:38;6.67;;;5.10;;
10191;SDS011;17580;50.850;4.504;2023-02-28T03:06:07;5.43;;;4.93;;
10191;SDS011;17580;50.850;4.504;2023-02-28T03:08:35;6.23;;;4.63;;
10191;SDS011;17580;50.850;4.504;2023-02-28T03:11:04;4.83;;;4.33;;
10191;SDS011;17580;50.850;4.504;2023-02-28T03:16:43;5.60;;;4.23;;
10191;SDS011;17580;50.850;4.504;2023-02-28T03:19:28;9.40;;;4.80;;
10191;SDS011;17580;50.850;4.504;2023-02-28T03:22:10;7.80;;;4.70;;
10191;SDS011;17580;50.850;4.504;2023-02-28T03:24:50;6.37;;;5.20;;
10191;SDS011;17580;50.850;4.504;2023-02-28T03:27:23;5.33;;;4.73;;
10191;SDS011;17580;50.850;4.504;2023-02-28T03:29:56;4.87;;;4.17;;
10191;SDS011;17580;50.850;4.504;2023-02-28T03:32:28;6.93;;;4.97;;
10191;SDS011;17580;50.850;4.504;2023-02-28T03:35:01;5.93;;;5.10;;
10191;SDS011;17580;50.850;4.504;2023-02-28T03:37:35;8.50;;;5.43;;
10191;SDS011;17580;50.850;4.504;2023-02-28T03:40:06;6.37;;;5.00;;
10191;SDS011;17580;50.850;4.504;2023-02-28T03:42:38;7.17;;;5.23;;
10191;SDS011;17580;50.850;4.504;2023-02-28T03:45:09;5.23;;;4.77;;
10191;SDS011;17580;50.850;4.504;2023-02-28T03:47:40;9.80;;;6.03;;
10191;SDS011;17580;50.850;4.504;2023-02-28T03:50:12;6.33;;;5.20;;
10191;SDS011;17580;50.850;4.504;2023-02-28T03:52:47;5.07;;;4.67;;
10191;SDS011;17580;50.850;4.504;2023-02-28T03:55:16;6.00;;;5.40;;
10191;SDS011;17580;50.850;4.504;2023-02-28T03:57:47;5.67;;;5.10;;
10191;SDS011;17580;50.850;4.504;2023-02-28T04:00:25;7.23;;;5.43;;
10191;SDS011;17580;50.850;4.504;2023-02-28T04:02:57;10.67;;;6.07;;
10191;SDS011;17580;50.850;4.504;2023-02-28T04:05:25;7.97;;;5.30;;
10191;SDS011;17580;50.850;4.504;2023-02-28T04:07:55;9.53;;;5.60;;
10191;SDS011;17580;50.850;4.504;2023-02-28T04:10:30;6.80;;;5.50;;
10191;SDS011;17580;50.850;4.504;2023-02-28T04:12:57;6.13;;;5.53;;
10191;SDS011;17580;50.850;4.504;2023-02-28T04:15:24;6.13;;;5.53;;
10191;SDS011;17580;50.850;4.504;2023-02-28T04:17:52;7.40;;;5.33;;
10191;SDS011;17580;50.850;4.504;2023-02-28T04:20:19;5.70;;;5.13;;
10191;SDS011;17580;50.850;4.504;2023-02-28T04:22:46;6.00;;;5.17;;
10191;SDS011;17580;50.850;4.504;2023-02-28T04:25:15;9.13;;;4.93;;
10191;SDS011;17580;50.850;4.504;2023-02-28T04:27:42;7.67;;;5.33;;
10191;SDS011;17580;50.850;4.504;2023-02-28T04:30:10;9.53;;;5.87;;
10191;SDS011;17580;50.850;4.504;2023-02-28T04:32:37;7.30;;;5.73;;
10191;SDS011;17580;50.850;4.504;2023-02-28T04:35:04;5.43;;;4.93;;
10191;SDS011;17580;50.850;4.504;2023-02-28T04:37:32;6.30;;;5.40;;
10191;SDS011;17580;50.850;4.504;2023-02-28T04:39:59;5.97;;;5.37;;
10191;SDS011;17580;50.850;4.504;2023-02-28T04:42:28;5.87;;;5.33;;
10191;SDS011;17580;50.850;4.504;2023-02-28T04:45:00;6.30;;;5.40;;
10191;SDS011;17580;50.850;4.504;2023-02-28T04:47:28;8.57;;;6.07;;
10191;SDS011;17580;50.850;4.504;2023-02-28T04:49:55;5.70;;;5.20;;
10191;SDS011;17580;50.850;4.504;2023-02-28T04:52:22;6.87;;;6.17;;
10191;SDS011;17580;50.850;4.504;2023-02-28T04:54:49;9.07;;;6.27;;
10191;SDS011;17580;50.850;4.504;2023-02-28T04:57:16;6.20;;;5.03;;
10191;SDS011;17580;50.850;4.504;2023-02-28T04:59:44;7.17;;;6.47;;
10191;SDS011;17580;50.850;4.504;2023-02-28T05:02:11;6.80;;;6.07;;
10191;SDS011;17580;50.850;4.504;2023-02-28T05:04:38;7.10;;;5.90;;
10191;SDS011;17580;50.850;4.504;2023-02-28T05:07:05;7.40;;;5.50;;
10191;SDS011;17580;50.850;4.504;2023-02-28T05:09:32;10.27;;;5.80;;
10191;SDS011;17580;50.850;4.504;2023-02-28T05:11:59;6.70;;;5.67;;
10191;SDS011;17580;50.850;4.504;2023-02-28T05:14:26;8.80;;;6.13;;
10191;SDS011;17580;50.850;4.504;2023-02-28T05:16:55;6.43;;;5.70;;
10191;SDS011;17580;50.850;4.504;2023-02-28T05:19:22;6.50;;;5.90;;
10191;SDS011;17580;50.850;4.504;2023-02-28T05:21:49;5.90;;;5.03;;
10191;SDS011;17580;50.850;4.504;2023-02-28T05:24:18;7.57;;;6.47;;
10191;SDS011;17580;50.850;4.504;2023-02-28T05:26:48;7.40;;;6.63;;
10191;SDS011;17580;50.850;4.504;2023-02-28T05:29:16;12.73;;;8.17;;
10191;SDS011;17580;50.850;4.504;2023-02-28T05:31:43;10.47;;;8.07;;
10191;SDS011;17580;50.850;4.504;2023-02-28T05:34:11;16.07;;;10.13;;
10191;SDS011;17580;50.850;4.504;2023-02-28T05:36:40;16.33;;;10.83;;
10191;SDS011;17580;50.850;4.504;2023-02-28T05:39:07;8.33;;;6.87;;
10191;SDS011;17580;50.850;4.504;2023-02-28T05:41:38;8.30;;;7.13;;
10191;SDS011;17580;50.850;4.504;2023-02-28T05:44:06;9.30;;;6.33;;
10191;SDS011;17580;50.850;4.504;2023-02-28T05:46:33;8.20;;;7.40;;
10191;SDS011;17580;50.850;4.504;2023-02-28T05:49:00;8.80;;;5.60;;
10191;SDS011;17580;50.850;4.504;2023-02-28T05:51:29;7.57;;;5.83;;
10191;SDS011;17580;50.850;4.504;2023-02-28T05:53:58;10.57;;;6.53;;
10191;SDS011;17580;50.850;4.504;2023-02-28T05:56:26;6.37;;;5.63;;
10191;SDS011;17580;50.850;4.504;2023-02-28T05:58:53;8.80;;;6.30;;
10191;SDS011;17580;50.850;4.504;2023-02-28T06:01:24;7.03;;;5.80;;
10191;SDS011;17580;50.850;4.504;2023-02-28T06:03:59;10.10;;;6.03;;
10191;SDS011;17580;50.850;4.504;2023-02-28T06:06:26;7.82;;;5.55;;
10191;SDS011;17580;50.850;4.504;2023-02-28T06:08:55;6.00;;;5.50;;
10191;SDS011;17580;50.850;4.504;2023-02-28T06:11:23;8.03;;;5.40;;
10191;SDS011;17580;50.850;4.504;2023-02-28T06:13:53;8.63;;;5.87;;
10191;SDS011;17580;50.850;4.504;2023-02-28T06:16:20;11.50;;;6.30;;
10191;SDS011;17580;50.850;4.504;2023-02-28T06:18:47;5.90;;;4.93;;
10191;SDS011;17580;50.850;4.504;2023-02-28T06:21:14;8.00;;;5.53;;
10191;SDS011;17580;50.850;4.504;2023-02-28T06:23:41;6.20;;;5.50;;
10191;SDS011;17580;50.850;4.504;2023-02-28T06:26:10;6.07;;;5.50;;
10191;SDS011;17580;50.850;4.504;2023-02-28T06:28:37;8.23;;;5.73;;
10191;SDS011;17580;50.850;4.504;2023-02-28T06:31:07;6.07;;;5.47;;
10191;SDS011;17580;50.850;4.504;2023-02-28T06:33:35;7.57;;;5.60;;
10191;SDS011;17580;50.850;4.504;2023-02-28T06:36:03;8.07;;;6.00;;
10191;SDS011;17580;50.850;4.504;2023-02-28T06:38:31;7.10;;;5.67;;
10191;SDS011;17580;50.850;4.504;2023-02-28T06:40:59;13.17;;;7.03;;
10191;SDS011;17580;50.850;4.504;2023-02-28T06:43:29;8.63;;;5.70;;
10191;SDS011;17580;50.850;4.504;2023-02-28T06:45:58;6.43;;;5.90;;
10191;SDS011;17580;50.850;4.504;2023-02-28T06:48:27;7.60;;;6.30;;
10191;SDS011;17580;50.850;4.504;2023-02-28T06:51:00;10.27;;;6.43;;
10191;SDS011;17580;50.850;4.504;2023-02-28T06:53:28;8.57;;;6.93;;
10191;SDS011;17580;50.850;4.504;2023-02-28T06:55:55;8.33;;;6.70;;
10191;SDS011;17580;50.850;4.504;2023-02-28T06:58:22;9.50;;;7.37;;
10191;SDS011;17580;50.850;4.504;2023-02-28T07:00:51;9.60;;;6.77;;
10191;SDS011;17580;50.850;4.504;2023-02-28T07:03:19;11.70;;;6.90;;
10191;SDS011;17580;50.850;4.504;2023-02-28T07:05:46;9.13;;;6.77;;
10191;SDS011;17580;50.850;4.504;2023-02-28T07:08:13;6.63;;;6.03;;
10191;SDS011;17580;50.850;4.504;2023-02-28T07:10:40;8.97;;;6.80;;
10191;SDS011;17580;50.850;4.504;2023-02-28T07:13:08;10.47;;;6.57;;
10191;SDS011;17580;50.850;4.504;2023-02-28T07:15:35;10.30;;;6.10;;
10191;SDS011;17580;50.850;4.504;2023-02-28T07:18:03;10.10;;;6.07;;
10191;SDS011;17580;50.850;4.504;2023-02-28T07:20:31;9.10;;;6.50;;
10191;SDS011;17580;50.850;4.504;2023-02-28T07:22:58;6.73;;;6.07;;
10191;SDS011;17580;50.850;4.504;2023-02-28T07:25:25;7.07;;;6.10;;
10191;SDS011;17580;50.850;4.504;2023-02-28T07:27:53;7.83;;;6.33;;
10191;SDS011;17580;50.850;4.504;2023-02-28T07:30:22;9.37;;;6.63;;
10191;SDS011;17580;50.850;4.504;2023-02-28T07:32:49;9.10;;;6.03;;
10191;SDS011;17580;50.850;4.504;2023-02-28T07:35:17;7.80;;;6.63;;
10191;SDS011;17580;50.850;4.504;2023-02-28T07:37:44;8.07;;;5.97;;
10191;SDS011;17580;50.850;4.504;2023-02-28T07:40:12;9.17;;;7.43;;
10191;SDS011;17580;50.850;4.504;2023-02-28T07:42:40;11.77;;;6.40;;
10191;SDS011;17580;50.850;4.504;2023-02-28T07:45:08;7.97;;;5.73;;
10191;SDS011;17580;50.850;4.504;2023-02-28T07:47:37;8.37;;;5.13;;
10191;SDS011;17580;50.850;4.504;2023-02-28T07:50:04;7.73;;;5.30;;
10191;SDS011;17580;50.850;4.504;2023-02-28T07:52:33;7.77;;;5.97;;
10191;SDS011;17580;50.850;4.504;2023-02-28T07:55:00;7.00;;;5.63;;
10191;SDS011;17580;50.850;4.504;2023-02-28T07:57:27;5.27;;;4.77;;
10191;SDS011;17580;50.850;4.504;2023-02-28T07:59:54;5.57;;;5.17;;
10191;SDS011;17580;50.850;4.504;2023-02-28T08:02:21;6.83;;;5.00;;
10191;SDS011;17580;50.850;4.504;2023-02-28T08:04:48;4.47;;;4.07;;
10191;SDS011;17580;50.850;4.504;2023-02-28T08:07:15;8.87;;;4.83;;
10191;SDS011;17580;50.850;4.504;2023-02-28T08:09:45;6.07;;;5.03;;
10191;SDS011;17580;50.850;4.504;2023-02-28T08:12:11;4.63;;;4.20;;
10191;SDS011;17580;50.850;4.504;2023-02-28T08:14:39;5.40;;;3.90;;
10191;SDS011;17580;50.850;4.504;2023-02-28T08:17:06;5.87;;;4.50;;
10191;SDS011;17580;50.850;4.504;2023-02-28T08:19:33;5.00;;;4.50;;
10191;SDS011;17580;50.850;4.504;2023-02-28T08:22:00;4.33;;;3.93;;
10191;SDS011;17580;50.850;4.504;2023-02-28T08:24:27;5.20;;;4.23;;
10191;SDS011;17580;50.850;4.504;2023-02-28T08:26:55;5.73;;;4.10;;
10191;SDS011;17580;50.850;4.504;2023-02-28T08:29:22;5.63;;;4.30;;
10191;SDS011;17580;50.850;4.504;2023-02-28T08:31:49;5.70;;;4.07;;
10191;SDS011;17580;50.850;4.504;2023-02-28T08:34:16;6.80;;;4.60;;
10191;SDS011;17580;50.850;4.504;2023-02-28T08:36:43;8.50;;;4.20;;
10191;SDS011;17580;50.850;4.504;2023-02-28T08:39:11;6.00;;;3.73;;
10191;SDS011;17580;50.850;4.504;2023-02-28T08:41:38;6.93;;;4.00;;
10191;SDS011;17580;50.850;4.504;2023-02-28T08:44:07;4.33;;;3.93;;
10191;SDS011;17580;50.850;4.504;2023-02-28T08:46:34;4.37;;;3.97;;
10191;SDS011;17580;50.850;4.504;2023-02-28T08:49:01;3.97;;;3.67;;
10191;SDS011;17580;50.850;4.504;2023-02-28T08:51:28;4.03;;;3.47;;
10191;SDS011;17580;50.850;4.504;2023-02-28T08:53:58;4.87;;;3.67;;
10191;SDS011;17580;50.850;4.504;2023-02-28T08:56:26;3.53;;;3.30;;
10191;SDS011;17580;50.850;4.504;2023-02-28T08:58:54;3.50;;;3.20;;
10191;SDS011;17580;50.850;4.504;2023-02-28T09:01:24;4.03;;;3.70;;
10191;SDS011;17580;50.850;4.504;2023-02-28T09:03:53;5.17;;;3.73;;
10191;SDS011;17580;50.850;4.504;2023-02-28T09:06:21;3.70;;;3.30;;
10191;SDS011;17580;50.850;4.504;2023-02-28T09:08:50;3.20;;;3.00;;
10191;SDS011;17580;50.850;4.504;2023-02-28T09:11:17;6.53;;;3.60;;
10191;SDS011;17580;50.850;4.504;2023-02-28T09:13:44;3.20;;;2.87;;
10191;SDS011;17580;50.850;4.504;2023-02-28T09:16:13;5.50;;;3.30;;
10191;SDS011;17580;50.850;4.504;2023-02-28T09:18:42;4.07;;;3.20;;
10191;SDS011;17580;50.850;4.504;2023-02-28T09:21:11;3.53;;;3.33;;
10191;SDS011;17580;50.850;4.504;2023-02-28T09:23:39;3.70;;;3.43;;
10191;SDS011;17580;50.850;4.504;2023-02-28T09:26:07;3.27;;;2.97;;
10191;SDS011;17580;50.850;4.504;2023-02-28T09:28:39;3.03;;;2.83;;
10191;SDS011;17580;50.850;4.504;2023-02-28T09:31:06;2.90;;;2.70;;
10191;SDS011;17580;50.850;4.504;2023-02-28T09:33:38;4.30;;;2.60;;
10191;SDS011;17580;50.850;4.504;2023-02-28T09:36:06;2.80;;;2.60;;
10191;SDS011;17580;50.850;4.504;2023-02-28T09:38:34;3.23;;;2.53;;
10191;SDS011;17580;50.850;4.504;2023-02-28T09:41:02;3.53;;;2.70;;
10191;SDS011;17580;50.850;4.504;2023-02-28T09:43:35;2.63;;;2.47;;
10191;SDS011;17580;50.850;4.504;2023-02-28T09:46:08;3.23;;;2.67;;
10191;SDS011;17580;50.850;4.504;2023-02-28T09:48:45;2.90;;;2.60;;
10191;SDS011;17580;50.850;4.504;2023-02-28T09:51:20;3.13;;;2.93;;
10191;SDS011;17580;50.850;4.504;2023-02-28T09:53:56;2.67;;;2.47;;
10191;SDS011;17580;50.850;4.504;2023-02-28T09:56:24;2.60;;;2.40;;
10191;SDS011;17580;50.850;4.504;2023-02-28T09:58:55;3.70;;;2.90;;
10191;SDS011;17580;50.850;4.504;2023-02-28T10:01:27;2.40;;;2.23;;
10191;SDS011;17580;50.850;4.504;2023-02-28T10:04:03;2.37;;;2.27;;
10191;SDS011;17580;50.850;4.504;2023-02-28T10:06:36;2.27;;;2.17;;
10191;SDS011;17580;50.850;4.504;2023-02-28T10:09:11;3.70;;;2.13;;
10191;SDS011;17580;50.850;4.504;2023-02-28T10:11:45;2.33;;;2.23;;
10191;SDS011;17580;50.850;4.504;2023-02-28T10:14:15;2.37;;;2.23;;
10191;SDS011;17580;50.850;4.504;2023-02-28T10:16:46;2.40;;;2.20;;
10191;SDS011;17580;50.850;4.504;2023-02-28T10:19:18;2.47;;;2.23;;
10191;SDS011;17580;50.850;4.504;2023-02-28T10:21:52;2.00;;;1.90;;
10191;SDS011;17580;50.850;4.504;2023-02-28T10:24:26;2.30;;;2.20;;
10191;SDS011;17580;50.850;4.504;2023-02-28T10:26:59;1.80;;;1.70;;
10191;SDS011;17580;50.850;4.504;2023-02-28T10:29:28;1.80;;;1.80;;
10191;SDS011;17580;50.850;4.504;2023-02-28T10:31:59;2.53;;;1.90;;
10191;SDS011;17580;50.850;4.504;2023-02-28T10:34:28;1.77;;;1.67;;
10191;SDS011;17580;50.850;4.504;2023-02-28T10:36:57;1.77;;;1.67;;
10191;SDS011;17580;50.850;4.504;2023-02-28T10:39:39;2.30;;;2.10;;
10191;SDS011;17580;50.850;4.504;2023-02-28T10:42:18;2.10;;;2.00;;
10191;SDS011;17580;50.850;4.504;2023-02-28T10:44:47;2.43;;;2.20;;
10191;SDS011;17580;50.850;4.504;2023-02-28T10:47:15;2.73;;;2.20;;
10191;SDS011;17580;50.850;4.504;2023-02-28T10:49:47;2.40;;;2.20;;
10191;SDS011;17580;50.850;4.504;2023-02-28T10:55:20;2.30;;;2.20;;
10191;SDS011;17580;50.850;4.504;2023-02-28T10:57:50;2.20;;;2.00;;
10191;SDS011;17580;50.850;4.504;2023-02-28T11:00:18;2.20;;;2.00;;
10191;SDS011;17580;50.850;4.504;2023-02-28T11:02:47;2.37;;;2.13;;
10191;SDS011;17580;50.850;4.504;2023-02-28T11:05:24;2.37;;;2.20;;
10191;SDS011;17580;50.850;4.504;2023-02-28T11:07:54;2.40;;;1.73;;
10191;SDS011;17580;50.850;4.504;2023-02-28T11:10:25;1.70;;;1.70;;
10191;SDS011;17580;50.850;4.504;2023-02-28T11:12:57;2.00;;;1.90;;
10191;SDS011;17580;50.850;4.504;2023-02-28T11:15:25;4.13;;;1.77;;
10191;SDS011;17580;50.850;4.504;2023-02-28T11:17:54;2.40;;;2.20;;
10191;SDS011;17580;50.850;4.504;2023-02-28T11:20:24;2.30;;;2.10;;
10191;SDS011;17580;50.850;4.504;2023-02-28T11:22:53;2.13;;;1.97;;
10191;SDS011;17580;50.850;4.504;2023-02-28T11:25:22;2.20;;;2.10;;
10191;SDS011;17580;50.850;4.504;2023-02-28T11:27:52;2.27;;;2.10;;
10191;SDS011;17580;50.850;4.504;2023-02-28T11:30:28;2.00;;;1.90;;
10191;SDS011;17580;50.850;4.504;2023-02-28T11:32:59;3.10;;;2.63;;
10191;SDS011;17580;50.850;4.504;2023-02-28T11:35:27;2.77;;;2.57;;
10191;SDS011;17580;50.850;4.504;2023-02-28T11:37:57;2.10;;;1.90;;
10191;SDS011;17580;50.850;4.504;2023-02-28T11:40:29;2.17;;;2.07;;
10191;SDS011;17580;50.850;4.504;2023-02-28T11:43:08;4.13;;;2.17;;
10191;SDS011;17580;50.850;4.504;2023-02-28T11:45:55;2.23;;;2.13;;
10191;SDS011;17580;50.850;4.504;2023-02-28T11:48:33;2.10;;;2.00;;
10191;SDS011;17580;50.850;4.504;2023-02-28T11:51:10;2.60;;;2.17;;
10191;SDS011;17580;50.850;4.504;2023-02-28T11:53:48;2.23;;;2.10;;
10191;SDS011;17580;50.850;4.504;2023-02-28T11:56:28;2.27;;;2.17;;
10191;SDS011;17580;50.850;4.504;2023-02-28T11:59:02;2.30;;;2.20;;
10191;SDS011;17580;50.850;4.504;2023-02-28T12:01:47;2.40;;;2.20;;
10191;SDS011;17580;50.850;4.504;2023-02-28T12:04:36;2.13;;;2.03;;
10191;SDS011;17580;50.850;4.504;2023-02-28T12:07:15;2.07;;;1.97;;
10191;SDS011;17580;50.850;4.504;2023-02-28T12:09:51;3.50;;;2.10;;
10191;SDS011;17580;50.850;4.504;2023-02-28T12:12:29;4.93;;;2.30;;
10191;SDS011;17580;50.850;4.504;2023-02-28T12:15:11;2.27;;;2.17;;
10191;SDS011;17580;50.850;4.504;2023-02-28T12:17:58;2.40;;;2.30;;
10191;SDS011;17580;50.850;4.504;2023-02-28T12:20:41;2.23;;;2.00;;
10191;SDS011;17580;50.850;4.504;2023-02-28T12:23:23;2.77;;;2.10;;
10191;SDS011;17580;50.850;4.504;2023-02-28T12:26:11;2.53;;;2.30;;
10191;SDS011;17580;50.850;4.504;2023-02-28T12:28:48;2.77;;;2.07;;
10191;SDS011;17580;50.850;4.504;2023-02-28T12:31:19;5.73;;;2.17;;
10191;SDS011;17580;50.850;4.504;2023-02-28T12:33:51;2.20;;;2.00;;
10191;SDS011;17580;50.850;4.504;2023-02-28T12:36:20;2.20;;;2.00;;
10191;SDS011;17580;50.850;4.504;2023-02-28T12:38:50;2.40;;;2.20;;
10191;SDS011;17580;50.850;4.504;2023-02-28T12:41:22;2.23;;;2.03;;
10191;SDS011;17580;50.850;4.504;2023-02-28T12:43:57;2.50;;;2.30;;
10191;SDS011;17580;50.850;4.504;2023-02-28T12:46:29;2.40;;;2.13;;
10191;SDS011;17580;50.850;4.504;2023-02-28T12:49:00;2.10;;;2.00;;
10191;SDS011;17580;50.850;4.504;2023-02-28T12:51:32;5.03;;;2.03;;
10191;SDS011;17580;50.850;4.504;2023-02-28T12:54:04;2.20;;;2.10;;
10191;SDS011;17580;50.850;4.504;2023-02-28T12:56:42;1.97;;;1.87;;
10191;SDS011;17580;50.850;4.504;2023-02-28T12:59:17;2.40;;;2.30;;
10191;SDS011;17580;50.850;4.504;2023-02-28T13:02:01;3.40;;;1.90;;
10191;SDS011;17580;50.850;4.504;2023-02-28T13:11:22;2.50;;;2.23;;
10191;SDS011;17580;50.850;4.504;2023-02-28T13:13:56;2.20;;;2.10;;
10191;SDS011;17580;50.850;4.504;2023-02-28T13:16:26;2.27;;;2.17;;
10191;SDS011;17580;50.850;4.504;2023-02-28T13:18:53;1.90;;;1.80;;
10191;SDS011;17580;50.850;4.504;2023-02-28T13:21:41;2.23;;;2.07;;
10191;SDS011;17580;50.850;4.504;2023-02-28T13:24:10;1.90;;;1.80;;
10191;SDS011;17580;50.850;4.504;2023-02-28T13:33:27;2.43;;;2.23;;
10191;SDS011;17580;50.850;4.504;2023-02-28T13:36:06;2.03;;;1.90;;
10191;SDS011;17580;50.850;4.504;2023-02-28T13:38:37;2.10;;;1.90;;
10191;SDS011;17580;50.850;4.504;2023-02-28T13:44:10;2.10;;;2.00;;
10191;SDS011;17580;50.850;4.504;2023-02-28T13:49:40;4.00;;;2.27;;
10191;SDS011;17580;50.850;4.504;2023-02-28T13:52:10;2.87;;;2.53;;
10191;SDS011;17580;50.850;4.504;2023-02-28T13:54:48;2.03;;;1.93;;
10191;SDS011;17580;50.850;4.504;2023-02-28T13:57:29;2.30;;;2.20;;
10191;SDS011;17580;50.850;4.504;2023-02-28T14:00:13;5.77;;;2.13;;
10191;SDS011;17580;50.850;4.504;2023-02-28T14:05:40;2.17;;;2.07;;
10191;SDS011;17580;50.850;4.504;2023-02-28T14:08:11;3.03;;;2.10;;
10191;SDS011;17580;50.850;4.504;2023-02-28T14:10:43;2.00;;;1.90;;
10191;SDS011;17580;50.850;4.504;2023-02-28T14:13:13;2.47;;;2.30;;
10191;SDS011;17580;50.850;4.504;2023-02-28T14:16:02;2.10;;;2.00;;
10191;SDS011;17580;50.850;4.504;2023-02-28T14:18:32;3.10;;;2.27;;
10191;SDS011;17580;50.850;4.504;2023-02-28T14:21:10;2.77;;;2.13;;
10191;SDS011;17580;50.850;4.504;2023-02-28T14:24:00;2.40;;;2.30;;
10191;SDS011;17580;50.850;4.504;2023-02-28T14:26:52;2.27;;;2.17;;
10191;SDS011;17580;50.850;4.504;2023-02-28T14:29:55;2.90;;;2.30;;
10191;SDS011;17580;50.850;4.504;2023-02-28T14:32:40;2.30;;;2.10;;
10191;SDS011;17580;50.850;4.504;2023-02-28T14:35:16;4.27;;;2.50;;
10191;SDS011;17580;50.850;4.504;2023-02-28T14:37:55;2.70;;;2.50;;
10191;SDS011;17580;50.850;4.504;2023-02-28T14:40:25;3.23;;;2.03;;
10191;SDS011;17580;50.850;4.504;2023-02-28T14:42:57;3.40;;;2.20;;
10191;SDS011;17580;50.850;4.504;2023-02-28T14:45:25;2.70;;;2.50;;
10191;SDS011;17580;50.850;4.504;2023-02-28T14:47:55;2.43;;;2.33;;
10191;SDS011;17580;50.850;4.504;2023-02-28T14:50:33;3.60;;;2.10;;
10191;SDS011;17580;50.850;4.504;2023-02-28T14:53:03;4.87;;;2.97;;
10191;SDS011;17580;50.850;4.504;2023-02-28T14:55:34;2.73;;;2.47;;
10191;SDS011;17580;50.850;4.504;2023-02-28T14:58:02;3.57;;;2.10;;
10191;SDS011;17580;50.850;4.504;2023-02-28T15:00:32;2.37;;;2.27;;
10191;SDS011;17580;50.850;4.504;2023-02-28T15:03:01;2.53;;;2.43;;
10191;SDS011;17580;50.850;4.504;2023-02-28T15:05:50;2.20;;;2.10;;
10191;SDS011;17580;50.850;4.504;2023-02-28T15:08:20;2.70;;;2.50;;
10191;SDS011;17580;50.850;4.504;2023-02-28T15:10:50;4.97;;;2.50;;
10191;SDS011;17580;50.850;4.504;2023-02-28T15:13:20;3.13;;;2.43;;
10191;SDS011;17580;50.850;4.504;2023-02-28T15:15:49;2.97;;;2.20;;
10191;SDS011;17580;50.850;4.504;2023-02-28T15:18:24;2.73;;;2.40;;
10191;SDS011;17580;50.850;4.504;2023-02-28T15:21:04;2.80;;;2.30;;
10191;SDS011;17580;50.850;4.504;2023-02-28T15:23:35;2.70;;;2.50;;
10191;SDS011;17580;50.850;4.504;2023-02-28T15:26:03;2.53;;;2.37;;
10191;SDS011;17580;50.850;4.504;2023-02-28T15:28:31;3.23;;;2.60;;
10191;SDS011;17580;50.850;4.504;2023-02-28T15:31:00;2.60;;;2.47;;
10191;SDS011;17580;50.850;4.504;2023-02-28T15:33:28;2.50;;;2.30;;
10191;SDS011;17580;50.850;4.504;2023-02-28T15:36:09;2.20;;;2.10;;
10191;SDS011;17580;50.850;4.504;2023-02-28T15:38:42;4.50;;;2.40;;
10191;SDS011;17580;50.850;4.504;2023-02-28T15:41:20;3.53;;;3.10;;
10191;SDS011;17580;50.850;4.504;2023-02-28T15:43:57;3.00;;;2.80;;
10191;SDS011;17580;50.850;4.504;2023-02-28T15:46:44;3.07;;;2.87;;